createdAt,value
2022-12-12T00:02:04.492Z,100597.84
2022-12-12T00:04:36.109Z,100590.19
2022-12-12T00:07:04.776Z,100599.72
2022-12-12T00:09:33.385Z,100588.66
2022-12-12T00:12:05.680Z,100583.53
2022-12-12T00:14:35.606Z,100588.66
2022-12-12T00:17:05.430Z,100594.91
2022-12-12T00:19:38.198Z,100589.66
2022-12-12T00:22:21.326Z,100602.53
2022-12-12T00:24:53.401Z,100596.50
2022-12-12T00:27:23.457Z,100589.66
2022-12-12T00:29:54.558Z,100602.78
2022-12-12T00:32:36.058Z,100606.31
2022-12-12T00:35:05.326Z,100593.53
2022-12-12T00:37:34.018Z,100597.69
2022-12-12T00:40:03.807Z,100589.09
2022-12-12T00:42:44.817Z,100587.56
2022-12-12T00:45:16.948Z,100577.13
2022-12-12T00:47:45.868Z,100580.56
2022-12-12T00:50:15.227Z,100571.09
2022-12-12T00:52:52.034Z,100572.69
2022-12-12T00:55:21.165Z,100582.97
2022-12-12T00:57:52.590Z,100578.66
2022-12-12T01:00:22.857Z,100574.50
2022-12-12T01:02:52.995Z,100571.94
2022-12-12T01:05:22.407Z,100571.28
2022-12-12T01:07:51.250Z,100564.41
2022-12-12T01:10:26.287Z,100562.91
2022-12-12T01:12:56.447Z,100559.41
2022-12-12T01:15:26.788Z,100565.34
2022-12-12T01:17:55.847Z,100570.63
2022-12-12T01:20:28.827Z,100564.66
2022-12-12T01:22:58.378Z,100562.16
2022-12-12T01:25:27.463Z,100568.19
2022-12-12T01:28:00.537Z,100554.28
2022-12-12T01:30:30.169Z,100553.38
2022-12-12T01:32:58.798Z,100558.66
2022-12-12T01:35:27.626Z,100556.03
2022-12-12T01:37:56.324Z,100555.19
2022-12-12T01:40:27.326Z,100560.31
2022-12-12T01:43:07.768Z,100552.81
2022-12-12T01:46:17.574Z,100552.81
2022-12-12T01:51:57.617Z,100546.72
2022-12-12T01:54:32.766Z,100551.97
2022-12-12T01:57:13.443Z,100551.91
2022-12-12T01:59:45.206Z,100553.66
2022-12-12T02:02:20.271Z,100548.44
2022-12-12T02:04:56.350Z,100550.44
2022-12-12T02:07:25.540Z,100551.13
2022-12-12T02:09:55.139Z,100543.59
2022-12-12T02:12:23.967Z,100552.97
2022-12-12T02:14:58.642Z,100551.38
2022-12-12T02:17:50.597Z,100551.59
2022-12-12T02:21:04.559Z,100542.94
2022-12-12T02:24:11.346Z,100550.56
2022-12-12T02:27:24.558Z,100539.38
2022-12-12T02:30:21.728Z,100549.06
2022-12-12T02:33:20.308Z,100555.06
2022-12-12T02:36:04.689Z,100559.47
2022-12-12T02:38:41.977Z,100553.59
2022-12-12T02:41:26.908Z,100550.84
2022-12-12T02:44:09.606Z,100553.31
2022-12-12T02:46:48.540Z,100549.09
2022-12-12T02:49:28.400Z,100548.16
2022-12-12T02:51:59.245Z,100549.00
2022-12-12T02:54:28.959Z,100553.31
2022-12-12T02:57:03.552Z,100549.75
2022-12-12T02:59:36.084Z,100548.81
2022-12-12T03:03:18.074Z,100543.59
2022-12-12T03:06:21.839Z,100546.09
2022-12-12T03:09:06.066Z,100539.22
2022-12-12T03:11:49.099Z,100550.31
2022-12-12T03:14:27.126Z,100541.22
2022-12-12T03:17:07.103Z,100536.16
2022-12-12T03:19:44.708Z,100533.56
2022-12-12T03:22:25.887Z,100542.38
2022-12-12T03:25:05.966Z,100530.25
2022-12-12T03:27:47.027Z,100525.09
2022-12-12T03:30:19.528Z,100518.94
2022-12-12T03:33:00.452Z,100527.56
2022-12-12T03:35:35.335Z,100512.91
2022-12-12T03:38:11.718Z,100513.75
2022-12-12T03:40:48.767Z,100511.16
2022-12-12T03:43:26.794Z,100512.00
2022-12-12T03:46:01.605Z,100508.50
2022-12-12T03:48:36.248Z,100511.00
2022-12-12T03:51:07.517Z,100519.66
2022-12-12T03:53:45.216Z,100511.97
2022-12-12T03:56:20.678Z,100513.63
2022-12-12T03:58:54.298Z,100510.94
2022-12-12T04:01:30.299Z,100518.91
2022-12-12T04:04:14.753Z,100514.94
2022-12-12T04:06:49.987Z,100507.31
2022-12-12T04:09:38.948Z,100513.34
2022-12-12T04:12:32.828Z,100510.81
2022-12-12T04:15:55.826Z,100504.88
2022-12-12T04:18:45.907Z,100496.09
2022-12-12T04:21:49.768Z,100498.63
2022-12-12T04:24:36.949Z,100501.94
2022-12-12T04:27:21.042Z,100504.81
2022-12-12T04:29:55.269Z,100510.19
2022-12-12T04:32:30.396Z,100514.47
2022-12-12T04:35:07.944Z,100502.50
2022-12-12T04:37:40.757Z,100498.28
2022-12-12T04:40:29.587Z,100492.84
2022-12-12T04:43:05.596Z,100498.22
2022-12-12T04:45:38.558Z,100492.13
2022-12-12T04:48:12.127Z,100484.34
2022-12-12T04:50:45.518Z,100492.97
2022-12-12T04:53:18.987Z,100482.94
2022-12-12T04:55:58.877Z,100489.16
2022-12-12T04:58:29.547Z,100484.13
2022-12-12T05:01:05.643Z,100496.38
2022-12-12T05:03:43.045Z,100487.75
2022-12-12T05:06:15.927Z,100476.44
2022-12-12T05:08:53.694Z,100472.06
2022-12-12T05:11:25.839Z,100475.38
2022-12-12T05:13:56.145Z,100471.97
2022-12-12T05:16:28.396Z,100465.81
2022-12-12T05:18:57.296Z,100475.31
2022-12-12T05:21:26.346Z,100476.44
2022-12-12T05:23:55.740Z,100481.81
2022-12-12T05:26:36.019Z,100477.69
2022-12-12T05:29:07.673Z,100475.94
2022-12-12T05:31:37.242Z,100468.94
2022-12-12T05:34:06.197Z,100473.84
2022-12-12T05:36:35.328Z,100469.56
2022-12-12T05:39:06.866Z,100469.47
2022-12-12T05:41:39.196Z,100473.91
2022-12-12T05:44:08.292Z,100473.00
2022-12-12T05:46:36.845Z,100469.44
2022-12-12T05:49:06.071Z,100467.06
2022-12-12T05:51:35.826Z,100460.91
2022-12-12T05:54:04.759Z,100465.00
2022-12-12T05:56:41.871Z,100458.78
2022-12-12T05:59:11.610Z,100455.50
2022-12-12T06:01:43.116Z,100448.66
2022-12-12T06:04:11.802Z,100445.34
2022-12-12T06:06:42.708Z,100446.91
2022-12-12T06:09:11.435Z,100444.25
2022-12-12T06:11:42.584Z,100445.94
2022-12-12T06:14:12.620Z,100443.47
2022-12-12T06:16:42.451Z,100446.84
2022-12-12T06:19:12.973Z,100451.09
2022-12-12T06:21:41.807Z,100452.72
2022-12-12T06:24:11.583Z,100445.84
2022-12-12T06:26:41.502Z,100446.00
2022-12-12T06:29:11.213Z,100436.69
2022-12-12T06:31:40.997Z,100439.00
2022-12-12T06:34:12.341Z,100432.13
2022-12-12T06:36:48.897Z,100430.25
2022-12-12T06:39:19.806Z,100437.09
2022-12-12T06:41:52.126Z,100441.22
2022-12-12T06:44:22.788Z,100437.84
2022-12-12T06:46:52.464Z,100430.38
2022-12-12T06:49:28.502Z,100428.75
2022-12-12T06:51:57.194Z,100428.94
2022-12-12T06:54:28.981Z,100438.41
2022-12-12T06:56:59.062Z,100436.81
2022-12-12T06:59:30.529Z,100439.19
2022-12-12T07:02:01.281Z,100430.53
2022-12-12T07:04:33.017Z,100435.56
2022-12-12T07:07:01.758Z,100437.66
2022-12-12T07:09:30.511Z,100435.41
2022-12-12T07:12:01.964Z,100427.78
2022-12-12T07:14:30.528Z,100423.50
2022-12-12T07:16:59.961Z,100427.84
2022-12-12T07:19:28.870Z,100426.16
2022-12-12T07:21:57.451Z,100419.38
2022-12-12T07:24:26.047Z,100420.94
2022-12-12T07:26:54.919Z,100429.47
2022-12-12T07:29:25.148Z,100425.13
2022-12-12T07:31:53.576Z,100434.78
2022-12-12T07:34:22.238Z,100433.78
2022-12-12T07:36:51.379Z,100440.47
2022-12-12T07:39:21.151Z,100440.66
2022-12-12T07:41:50.290Z,100447.50
2022-12-12T07:44:19.729Z,100443.06
2022-12-12T07:46:49.984Z,100443.88
2022-12-12T07:49:18.570Z,100438.41
2022-12-12T07:51:49.125Z,100440.03
2022-12-12T07:54:22.021Z,100440.72
2022-12-12T07:56:50.734Z,100442.47
2022-12-12T07:59:19.224Z,100439.97
2022-12-12T08:01:48.420Z,100440.88
2022-12-12T08:04:18.952Z,100440.25
2022-12-12T08:06:50.014Z,100441.84
2022-12-12T08:09:21.371Z,100440.91
2022-12-12T08:11:49.898Z,100446.13
2022-12-12T08:14:18.474Z,100442.78
2022-12-12T08:16:47.475Z,100452.22
2022-12-12T08:19:30.703Z,100446.25
2022-12-12T08:22:00.888Z,100448.06
2022-12-12T08:24:30.448Z,100458.44
2022-12-12T08:26:59.013Z,100455.84
2022-12-12T08:29:29.668Z,100450.09
2022-12-12T08:31:58.522Z,100451.13
2022-12-12T08:34:27.937Z,100450.09
2022-12-12T08:36:57.130Z,100443.50
2022-12-12T08:39:28.483Z,100441.19
2022-12-12T08:41:56.928Z,100441.25
2022-12-12T08:44:25.399Z,100445.38
2022-12-12T08:46:54.211Z,100447.66
2022-12-12T08:49:22.964Z,100445.63
2022-12-12T08:51:51.917Z,100449.75
2022-12-12T08:54:20.432Z,100448.00
2022-12-12T08:56:50.460Z,100447.94
2022-12-12T08:59:18.951Z,100449.75
2022-12-12T09:01:47.692Z,100448.19
2022-12-12T09:04:16.397Z,100454.97
2022-12-12T09:06:46.195Z,100449.78
2022-12-12T09:09:15.689Z,100446.41
2022-12-12T09:11:44.002Z,100439.41
2022-12-12T09:14:13.788Z,100441.00
2022-12-12T09:16:44.681Z,100445.06
2022-12-12T09:19:13.534Z,100448.25
2022-12-12T09:21:43.800Z,100444.53
2022-12-12T09:24:14.989Z,100448.06
2022-12-12T09:26:43.988Z,100455.72
2022-12-12T09:29:14.490Z,100449.75
2022-12-12T09:31:42.979Z,100452.16
2022-12-12T09:34:11.538Z,100450.25
2022-12-12T09:36:40.072Z,100453.19
2022-12-12T09:39:11.473Z,100448.81
2022-12-12T09:41:40.810Z,100436.94
2022-12-12T09:44:12.550Z,100442.22
2022-12-12T09:46:47.513Z,100442.75
2022-12-12T09:49:22.959Z,100437.31
2022-12-12T09:51:53.678Z,100436.66
2022-12-12T09:54:29.835Z,100441.94
2022-12-12T09:57:15.911Z,100443.69
2022-12-12T09:59:51.722Z,100446.94
2022-12-12T10:02:48.250Z,100455.22
2022-12-12T10:05:29.361Z,100441.19
2022-12-12T10:08:06.359Z,100440.75
2022-12-12T10:10:38.316Z,100436.38
2022-12-12T10:13:14.931Z,100444.94
2022-12-12T10:15:48.242Z,100437.13
2022-12-12T10:18:22.533Z,100441.34
2022-12-12T10:20:55.909Z,100440.50
2022-12-12T10:23:37.472Z,100431.75
2022-12-12T10:26:10.111Z,100439.47
2022-12-12T10:28:38.732Z,100448.59
2022-12-12T10:31:20.928Z,100442.56
2022-12-12T10:34:05.218Z,100438.97
2022-12-12T10:36:50.812Z,100446.78
2022-12-12T10:39:32.545Z,100442.41
2022-12-12T10:42:08.383Z,100445.31
2022-12-12T10:45:18.299Z,100440.53
2022-12-12T10:47:48.473Z,100442.88
2022-12-12T10:50:29.955Z,100447.25
2022-12-12T10:52:58.867Z,100449.59
2022-12-12T10:55:37.194Z,100441.97
2022-12-12T10:58:08.210Z,100442.59
2022-12-12T11:00:38.828Z,100433.88
2022-12-12T11:03:30.933Z,100435.50
2022-12-12T11:06:08.151Z,100437.22
2022-12-12T11:08:38.739Z,100428.47
2022-12-12T11:11:19.841Z,100435.50
2022-12-12T11:13:53.485Z,100428.63
2022-12-12T11:16:26.433Z,100423.22
2022-12-12T11:19:07.932Z,100425.78
2022-12-12T11:21:40.156Z,100426.41
2022-12-12T11:24:14.670Z,100413.59
2022-12-12T11:26:47.414Z,100415.50
2022-12-12T11:29:42.371Z,100412.13
2022-12-12T11:32:16.316Z,100408.25
2022-12-12T11:34:51.231Z,100414.88
2022-12-12T11:37:25.515Z,100409.50
2022-12-12T11:39:55.699Z,100408.56
2022-12-12T11:42:28.564Z,100409.19
2022-12-12T11:45:03.461Z,100402.94
2022-12-12T11:47:41.353Z,100394.44
2022-12-12T11:50:22.394Z,100391.88
2022-12-12T11:52:55.496Z,100391.09
2022-12-12T11:55:36.926Z,100385.84
2022-12-12T11:58:18.359Z,100382.47
2022-12-12T12:00:52.000Z,100381.63
2022-12-12T12:03:33.186Z,100383.16
2022-12-12T12:06:26.826Z,100382.22
2022-12-12T12:09:13.295Z,100374.00
2022-12-12T12:11:51.706Z,100373.94
2022-12-12T12:14:35.951Z,100369.81
2022-12-12T12:17:13.151Z,100365.28
2022-12-12T12:19:48.742Z,100374.72
2022-12-12T12:22:28.014Z,100369.81
2022-12-12T12:25:25.829Z,100372.13
2022-12-12T12:28:20.277Z,100373.00
2022-12-12T12:30:59.815Z,100372.06
2022-12-12T12:33:47.338Z,100373.66
2022-12-12T12:36:23.117Z,100371.88
2022-12-12T12:39:06.037Z,100378.84
2022-12-12T12:41:51.925Z,100375.16
2022-12-12T12:44:42.154Z,100379.44
2022-12-12T12:47:25.093Z,100374.38
2022-12-12T12:49:59.308Z,100379.31
2022-12-12T12:52:34.815Z,100378.19
2022-12-12T12:55:05.955Z,100383.56
2022-12-12T12:57:41.168Z,100376.06
2022-12-12T13:00:17.698Z,100373.41
2022-12-12T13:02:55.997Z,100370.81
2022-12-12T13:05:33.706Z,100363.84
2022-12-12T13:08:14.825Z,100367.00
2022-12-12T13:10:49.176Z,100368.16
2022-12-12T13:13:25.907Z,100369.75
2022-12-12T13:15:58.378Z,100367.97
2022-12-12T13:18:45.146Z,100372.47
2022-12-12T13:21:24.491Z,100368.28
2022-12-12T13:24:01.114Z,100358.06
2022-12-12T13:26:40.159Z,100366.63
2022-12-12T13:29:32.106Z,100369.97
2022-12-12T13:32:37.557Z,100366.34
2022-12-12T13:35:11.573Z,100364.50
2022-12-12T13:37:47.385Z,100362.53
2022-12-12T13:40:36.771Z,100353.78
2022-12-12T13:43:09.920Z,100366.91
2022-12-12T13:45:45.436Z,100368.56
2022-12-12T13:48:55.725Z,100367.56
2022-12-12T13:51:36.028Z,100362.38
2022-12-12T13:54:53.409Z,100361.25
2022-12-12T13:57:30.124Z,100363.22
2022-12-12T14:00:22.436Z,100347.50
2022-12-12T14:03:02.756Z,100355.53
2022-12-12T14:05:36.162Z,100350.94
2022-12-12T14:08:24.340Z,100349.56
2022-12-12T14:10:57.832Z,100350.97
2022-12-12T14:13:43.540Z,100357.56
2022-12-12T14:16:23.997Z,100353.47
2022-12-12T14:19:06.770Z,100356.31
2022-12-12T14:21:43.043Z,100352.00
2022-12-12T14:24:55.012Z,100361.56
2022-12-12T14:27:56.730Z,100357.16
2022-12-12T14:30:30.850Z,100353.03
2022-12-12T14:33:11.052Z,100357.56
2022-12-12T14:35:53.075Z,100361.16
2022-12-12T14:38:32.908Z,100362.78
2022-12-12T14:41:11.622Z,100359.16
2022-12-12T14:43:49.026Z,100359.03
2022-12-12T14:46:44.224Z,100356.31
2022-12-12T14:49:17.060Z,100360.72
2022-12-12T14:51:52.518Z,100344.66
2022-12-12T14:54:24.175Z,100348.34
2022-12-12T14:56:55.947Z,100343.16
2022-12-12T14:59:31.462Z,100338.50
2022-12-12T15:02:03.474Z,100338.63
2022-12-12T15:04:34.509Z,100343.81
2022-12-12T15:07:06.483Z,100338.63
2022-12-12T15:09:37.022Z,100343.81
2022-12-12T15:12:16.515Z,100339.53
2022-12-12T15:14:56.386Z,100336.88
2022-12-12T15:17:32.851Z,100341.22
2022-12-12T15:20:04.796Z,100342.97
2022-12-12T15:22:37.727Z,100345.69
2022-12-12T15:25:17.951Z,100346.84
2022-12-12T15:27:55.300Z,100352.34
2022-12-12T15:30:33.869Z,100356.19
2022-12-12T15:33:03.771Z,100353.53
2022-12-12T15:35:34.512Z,100353.34
2022-12-12T15:38:07.200Z,100355.19
2022-12-12T15:40:37.968Z,100355.22
2022-12-12T15:43:09.347Z,100356.88
2022-12-12T15:45:41.039Z,100356.13
2022-12-12T15:48:17.226Z,100364.00
2022-12-12T15:50:59.123Z,100362.34
2022-12-12T15:53:34.584Z,100359.81
2022-12-12T15:56:05.906Z,100365.00
2022-12-12T15:58:39.119Z,100365.00
2022-12-12T16:01:21.386Z,100369.19
2022-12-12T16:04:00.173Z,100364.94
2022-12-12T16:06:31.873Z,100361.41
2022-12-12T16:09:18.865Z,100360.03
2022-12-12T16:11:48.972Z,100369.75
2022-12-12T16:14:39.616Z,100372.16
2022-12-12T16:17:13.996Z,100373.81
2022-12-12T16:19:46.207Z,100373.75
2022-12-12T16:22:34.662Z,100370.31
2022-12-12T16:25:19.423Z,100373.00
2022-12-12T16:27:52.698Z,100364.53
2022-12-12T16:30:21.982Z,100368.13
2022-12-12T16:32:50.995Z,100367.28
2022-12-12T16:35:22.173Z,100366.41
2022-12-12T16:37:53.130Z,100371.69
2022-12-12T16:40:24.450Z,100374.34
2022-12-12T16:42:56.802Z,100375.25
2022-12-12T16:45:25.577Z,100378.72
2022-12-12T16:47:54.313Z,100377.03
2022-12-12T16:50:23.966Z,100381.50
2022-12-12T16:52:52.689Z,100378.22
2022-12-12T16:55:25.348Z,100385.34
2022-12-12T16:57:54.283Z,100387.09
2022-12-12T17:00:23.556Z,100387.25
2022-12-12T17:02:52.099Z,100395.88
2022-12-12T17:05:24.277Z,100396.84
2022-12-12T17:07:54.085Z,100391.66
2022-12-12T17:10:29.700Z,100401.88
2022-12-12T17:12:58.270Z,100401.66
2022-12-12T17:15:30.101Z,100393.03
2022-12-12T17:18:00.230Z,100407.75
2022-12-12T17:20:37.511Z,100409.50
2022-12-12T17:23:28.945Z,100407.75
2022-12-12T17:26:03.996Z,100404.41
2022-12-12T17:32:13.528Z,100413.97
2022-12-12T17:34:55.710Z,100411.44
2022-12-12T17:37:29.850Z,100406.19
2022-12-12T17:40:09.618Z,100411.22
2022-12-12T17:46:20.293Z,100406.66
2022-12-12T17:52:37.886Z,100408.25
2022-12-12T17:55:53.188Z,100409.84
2022-12-12T17:58:27.970Z,100408.75
2022-12-12T18:01:11.785Z,100411.25
2022-12-12T18:03:49.954Z,100410.44
2022-12-12T18:06:21.639Z,100410.50
2022-12-12T18:08:50.816Z,100411.25
2022-12-12T18:11:21.640Z,100409.50
2022-12-12T18:13:50.551Z,100406.94
2022-12-12T18:16:20.578Z,100407.69
2022-12-12T18:18:52.940Z,100417.16
2022-12-12T18:24:14.739Z,100417.22
2022-12-12T18:26:44.542Z,100418.91
2022-12-12T18:29:15.023Z,100422.25
2022-12-12T18:31:44.333Z,100416.13
2022-12-12T18:34:14.558Z,100416.28
2022-12-12T18:36:43.449Z,100405.91
2022-12-12T18:39:19.461Z,100411.97
2022-12-12T18:41:56.285Z,100417.16
2022-12-12T18:44:39.359Z,100418.13
2022-12-12T18:47:16.037Z,100412.03
2022-12-12T18:49:46.168Z,100414.78
2022-12-12T18:52:35.067Z,100421.75
2022-12-12T18:55:08.683Z,100413.22
2022-12-12T18:57:40.191Z,100412.38
2022-12-12T19:00:11.563Z,100409.84
2022-12-12T19:03:08.939Z,100409.94
2022-12-12T19:05:44.259Z,100404.69
2022-12-12T19:08:13.245Z,100411.63
2022-12-12T19:11:14.695Z,100401.38
2022-12-12T19:14:12.573Z,100409.25
2022-12-12T19:16:42.838Z,100405.19
2022-12-12T19:19:15.547Z,100412.28
2022-12-12T19:22:39.722Z,100405.75
2022-12-12T19:25:04.911Z,100415.34
2022-12-12T19:27:36.393Z,100410.25
2022-12-12T19:30:14.745Z,100419.06
2022-12-12T19:36:26.794Z,100419.31
2022-12-12T19:39:03.274Z,100427.31
2022-12-12T19:41:37.111Z,100429.22
2022-12-12T19:44:48.820Z,100439.53
2022-12-12T19:47:59.615Z,100441.44
2022-12-12T19:50:46.508Z,100447.75
2022-12-12T19:53:50.171Z,100457.53
2022-12-12T20:00:01.037Z,100461.78
2022-12-12T20:02:46.031Z,100460.25
2022-12-12T20:05:53.526Z,100458.34
2022-12-12T20:08:48.401Z,100457.50
2022-12-12T20:11:30.814Z,100461.66
2022-12-12T20:14:03.654Z,100459.16
2022-12-12T20:16:42.917Z,100472.25
2022-12-12T20:19:33.493Z,100474.97
2022-12-12T20:22:55.071Z,100462.94
2022-12-12T20:25:43.575Z,100462.72
2022-12-12T20:29:02.553Z,100457.50
2022-12-12T20:35:13.975Z,100452.28
2022-12-12T20:37:56.147Z,100458.34
2022-12-12T20:40:44.510Z,100459.19
2022-12-12T20:43:15.145Z,100459.13
2022-12-12T20:45:48.244Z,100460.88
2022-12-12T20:48:26.488Z,100449.69
2022-12-12T20:51:57.991Z,100451.50
2022-12-12T20:55:15.905Z,100461.94
2022-12-12T20:58:05.146Z,100461.31
2022-12-12T21:00:36.175Z,100460.59
2022-12-12T21:03:08.276Z,100460.78
2022-12-12T21:09:23.893Z,100458.16
2022-12-12T21:12:17.585Z,100451.34
2022-12-12T21:15:14.979Z,100455.41
2022-12-12T21:18:22.607Z,100450.22
2022-12-12T21:24:33.641Z,100467.19
2022-12-12T21:27:43.955Z,100473.16
2022-12-12T21:30:15.851Z,100467.88
2022-12-12T21:32:51.424Z,100467.88
2022-12-12T21:35:20.705Z,100469.63
2022-12-12T21:38:26.250Z,100472.16
2022-12-12T21:44:41.249Z,100469.56
2022-12-12T21:50:55.845Z,100471.47
2022-12-12T21:57:09.538Z,100468.44
2022-12-12T22:07:42.019Z,100460.09
2022-12-12T22:13:55.021Z,100458.88
2022-12-12T22:17:13.520Z,100459.91
2022-12-12T22:23:36.565Z,100461.31
2022-12-12T22:29:45.933Z,100458.50
2022-12-12T22:36:01.754Z,100463.19
2022-12-12T22:42:16.679Z,100475.16
2022-12-12T22:48:30.747Z,100471.03
2022-12-12T22:54:47.898Z,100471.47
2022-12-12T23:01:49.847Z,100478.25
2022-12-12T23:23:04.704Z,100460.09
2022-12-12T23:29:42.624Z,100469.84
2022-12-12T23:36:02.891Z,100458.03
2022-12-12T23:42:12.688Z,100462.00
2022-12-12T23:48:38.633Z,100458.78
2022-12-12T23:54:50.440Z,100454.03
